Time;durP1;ratioP1;P1;durP2;ratioP2;P2;SDS_P1;SDS_P2;PMS_P1;PMS_P2;Temp;Humidity;BMP_temperature;BMP_pressure;BME280_temperature;BME280_humidity;BME280_pressure;Samples;Min_cycle;Max_cycle;Signal;HPM_P1;HPM_P2
2023/12/15 00:01:49;;;;;;;16.57;12.37;;;3.20;99.90;;;;;;4954867;29;20202;-78
2023/12/15 00:04:18;;;;;;;17.83;13.10;;;3.20;99.90;;;;;;4954761;29;20208;-78
2023/12/15 00:06:45;;;;;;;19.93;14.53;;;3.10;99.90;;;;;;4954831;29;20201;-77
2023/12/15 00:09:11;;;;;;;21.83;14.33;;;3.00;99.90;;;;;;4954563;29;20225;-77
2023/12/15 00:11:38;;;;;;;19.57;13.87;;;2.90;99.90;;;;;;4954566;29;20209;-77
2023/12/15 00:14:05;;;;;;;20.27;13.73;;;2.80;99.90;;;;;;4954951;29;20212;-78
2023/12/15 00:16:31;;;;;;;21.93;14.73;;;2.70;99.90;;;;;;4946908;29;20201;-77
2023/12/15 00:18:58;;;;;;;22.77;14.43;;;2.60;99.90;;;;;;4954598;29;20681;-77
2023/12/15 00:21:26;;;;;;;20.67;15.00;;;2.60;99.90;;;;;;4954613;29;20205;-77
2023/12/15 00:23:53;;;;;;;22.07;14.67;;;2.60;99.90;;;;;;4954714;29;20256;-78
2023/12/15 00:26:19;;;;;;;24.63;16.43;;;2.50;99.90;;;;;;4954530;29;20280;-77
2023/12/15 00:28:46;;;;;;;31.57;18.13;;;2.50;99.90;;;;;;4954659;29;20225;-77
2023/12/15 00:31:13;;;;;;;31.17;17.33;;;2.50;99.90;;;;;;4954636;29;20259;-77
2023/12/15 00:33:39;;;;;;;42.10;22.57;;;2.40;99.90;;;;;;4954587;29;20205;-77
2023/12/15 00:36:07;;;;;;;60.53;28.90;;;2.30;99.90;;;;;;4962258;29;20260;-77
2023/12/15 00:38:35;;;;;;;28.63;18.97;;;2.30;99.90;;;;;;4950319;29;20205;-77
2023/12/15 00:41:01;;;;;;;25.73;16.53;;;2.20;99.90;;;;;;4958826;29;20204;-77
2023/12/15 00:43:28;;;;;;;27.47;17.37;;;2.20;99.90;;;;;;4958630;29;20345;-77
2023/12/15 00:45:55;;;;;;;23.90;16.40;;;2.20;99.90;;;;;;4958382;29;20208;-78
2023/12/15 00:48:21;;;;;;;30.67;18.07;;;2.10;99.90;;;;;;4958049;29;20209;-77
2023/12/15 00:50:48;;;;;;;27.47;17.20;;;2.10;99.90;;;;;;4958169;29;20561;-77
2023/12/15 00:53:14;;;;;;;28.93;17.87;;;2.10;99.90;;;;;;4958162;29;20204;-77
2023/12/15 00:55:42;;;;;;;26.63;17.13;;;2.10;99.90;;;;;;4958269;29;20205;-76
2023/12/15 00:58:09;;;;;;;28.67;18.47;;;2.10;99.90;;;;;;4958168;29;20327;-77
2023/12/15 01:00:36;;;;;;;29.97;19.47;;;2.00;99.90;;;;;;4958016;29;20201;-77
2023/12/15 01:03:02;;;;;;;28.63;18.50;;;2.00;99.90;;;;;;4958054;29;20538;-77
2023/12/15 01:05:29;;;;;;;29.93;18.37;;;2.00;99.90;;;;;;4957849;29;20205;-77
2023/12/15 01:07:55;;;;;;;29.77;19.73;;;2.00;99.90;;;;;;4957779;29;20260;-77
2023/12/15 01:10:22;;;;;;;30.63;18.83;;;2.10;99.90;;;;;;4957874;29;20235;-77
2023/12/15 01:12:50;;;;;;;29.67;19.03;;;2.10;99.90;;;;;;4957758;29;20601;-77
2023/12/15 01:15:17;;;;;;;30.87;19.77;;;2.00;99.90;;;;;;4957967;29;20212;-77
2023/12/15 01:17:43;;;;;;;32.60;20.10;;;2.10;99.90;;;;;;4957569;29;20653;-77
2023/12/15 01:20:13;;;;;;;32.30;19.37;;;2.10;99.90;;;;;;4957563;29;20256;-77
2023/12/15 01:22:39;;;;;;;31.33;19.30;;;2.10;99.90;;;;;;4957861;29;20280;-77
2023/12/15 01:25:07;;;;;;;32.13;19.07;;;2.10;99.90;;;;;;4957444;29;20597;-77
2023/12/15 01:27:34;;;;;;;33.83;20.13;;;2.20;99.90;;;;;;4957544;29;20284;-78
2023/12/15 01:30:03;;;;;;;31.27;19.50;;;2.20;99.90;;;;;;4957337;29;20287;-79
2023/12/15 01:32:29;;;;;;;31.53;19.60;;;2.20;99.90;;;;;;4957503;29;20614;-77
2023/12/15 01:34:56;;;;;;;30.37;18.63;;;2.30;99.90;;;;;;4957413;29;20657;-77
2023/12/15 01:37:23;;;;;;;30.90;18.77;;;2.30;99.90;;;;;;4957568;29;20197;-77
2023/12/15 01:39:50;;;;;;;30.50;19.20;;;2.30;99.90;;;;;;4957278;29;20201;-78
2023/12/15 01:42:16;;;;;;;32.87;19.87;;;2.40;99.90;;;;;;4957204;29;20260;-77
2023/12/15 01:44:43;;;;;;;29.77;18.70;;;2.40;99.90;;;;;;4957290;29;20205;-77
2023/12/15 01:47:14;;;;;;;30.43;18.23;;;2.50;99.90;;;;;;4957039;29;20233;-77
2023/12/15 01:49:41;;;;;;;27.93;18.30;;;2.50;99.90;;;;;;4956444;28;20710;-77
2023/12/15 01:52:07;;;;;;;31.63;20.40;;;2.40;99.90;;;;;;4957210;29;20300;-77
2023/12/15 01:54:34;;;;;;;27.97;18.53;;;2.40;99.90;;;;;;4957360;29;20204;-78
2023/12/15 01:57:01;;;;;;;29.73;19.27;;;2.40;99.90;;;;;;4956958;29;20209;-77
2023/12/15 01:59:27;;;;;;;33.60;19.73;;;2.40;99.90;;;;;;4956827;29;20236;-77
2023/12/15 02:01:54;;;;;;;28.47;18.50;;;2.30;99.90;;;;;;4956971;29;20206;-77
2023/12/15 02:04:22;;;;;;;29.80;18.47;;;2.20;99.90;;;;;;4956843;29;20205;-77
2023/12/15 02:06:48;;;;;;;31.90;18.73;;;2.10;99.90;;;;;;4956769;29;20657;-77
2023/12/15 02:09:15;;;;;;;25.70;16.53;;;2.10;99.90;;;;;;4956762;29;20225;-77
2023/12/15 02:11:42;;;;;;;25.87;17.07;;;2.10;99.90;;;;;;4956800;29;20538;-77
2023/12/15 02:14:08;;;;;;;27.13;17.63;;;2.00;99.90;;;;;;4956691;29;20197;-77
2023/12/15 02:16:36;;;;;;;29.97;18.40;;;2.00;99.90;;;;;;4956659;29;20259;-76
2023/12/15 02:19:02;;;;;;;28.63;18.20;;;2.00;99.90;;;;;;4956757;29;20212;-76
2023/12/15 02:21:33;;;;;;;29.30;18.17;;;1.90;99.90;;;;;;4956658;29;20200;-77
2023/12/15 02:24:01;;;;;;;26.43;17.87;;;1.90;99.90;;;;;;4956543;29;20201;-77
2023/12/15 02:26:28;;;;;;;28.43;17.73;;;1.80;99.90;;;;;;4956498;29;20287;-77
2023/12/15 02:28:54;;;;;;;30.73;18.57;;;1.80;99.90;;;;;;4956068;29;20201;-77
2023/12/15 02:31:22;;;;;;;27.93;17.93;;;1.90;99.90;;;;;;4956216;29;20213;-77
2023/12/15 02:33:49;;;;;;;25.27;17.00;;;1.80;99.90;;;;;;4956454;29;20240;-77
2023/12/15 02:36:19;;;;;;;28.60;17.20;;;1.80;99.90;;;;;;4956238;29;20201;-78
2023/12/15 02:38:46;;;;;;;28.80;17.47;;;1.70;99.90;;;;;;4956403;29;20275;-77
2023/12/15 02:41:14;;;;;;;29.60;17.17;;;1.80;99.90;;;;;;4956058;29;20237;-77
2023/12/15 02:43:41;;;;;;;27.77;17.77;;;1.80;99.90;;;;;;4955977;29;20201;-77
2023/12/15 02:46:07;;;;;;;30.47;17.43;;;1.70;99.90;;;;;;4956178;29;20201;-76
2023/12/15 02:48:35;;;;;;;27.03;16.80;;;1.70;99.90;;;;;;4956398;29;20197;-77
2023/12/15 02:51:02;;;;;;;29.20;18.17;;;1.70;99.90;;;;;;4955823;29;20224;-77
2023/12/15 02:53:29;;;;;;;29.00;17.53;;;1.60;99.90;;;;;;4955773;29;20205;-77
2023/12/15 02:55:56;;;;;;;32.03;18.97;;;1.60;99.90;;;;;;4955858;29;20205;-76
2023/12/15 02:58:24;;;;;;;26.50;17.00;;;1.60;99.90;;;;;;4955718;29;20209;-76
2023/12/15 03:00:50;;;;;;;28.80;18.17;;;1.60;99.90;;;;;;4955362;28;20205;-76
2023/12/15 03:03:17;;;;;;;26.53;16.90;;;1.60;99.90;;;;;;4955666;29;20217;-76
2023/12/15 03:05:44;;;;;;;31.77;18.87;;;1.60;99.90;;;;;;4955804;29;20207;-76
2023/12/15 03:08:10;;;;;;;30.10;18.07;;;1.60;99.90;;;;;;4955691;29;20245;-76
2023/12/15 03:10:37;;;;;;;29.30;18.00;;;1.60;99.90;;;;;;4955422;29;20292;-76
2023/12/15 03:13:04;;;;;;;28.80;18.50;;;1.60;99.90;;;;;;4955550;29;20201;-77
2023/12/15 03:15:32;;;;;;;32.63;18.43;;;1.60;99.90;;;;;;4955429;29;20205;-76
2023/12/15 03:17:58;;;;;;;29.43;17.97;;;1.70;99.90;;;;;;4955652;29;20205;-76
2023/12/15 03:20:25;;;;;;;30.13;18.97;;;1.70;99.90;;;;;;4955463;29;20209;-77
2023/12/15 03:22:53;;;;;;;28.97;17.87;;;1.70;99.90;;;;;;4955347;29;20725;-77
2023/12/15 03:25:19;;;;;;;28.30;18.00;;;1.60;99.90;;;;;;4955317;29;20292;-76
2023/12/15 03:27:46;;;;;;;29.57;17.87;;;1.70;99.90;;;;;;4955455;29;20205;-76
2023/12/15 03:30:12;;;;;;;29.00;17.83;;;1.80;99.90;;;;;;4955359;29;20645;-77
2023/12/15 03:32:40;;;;;;;25.30;16.90;;;1.80;99.90;;;;;;4955434;29;20302;-76
2023/12/15 03:35:07;;;;;;;27.77;18.07;;;1.80;99.90;;;;;;4955305;29;20280;-76
2023/12/15 03:37:34;;;;;;;28.23;18.13;;;1.80;99.90;;;;;;4955220;29;20205;-76
2023/12/15 03:40:03;;;;;;;26.93;16.63;;;1.80;99.90;;;;;;4954886;29;20261;-76
2023/12/15 03:42:30;;;;;;;27.77;17.60;;;1.80;99.90;;;;;;4954821;29;20283;-75
2023/12/15 03:44:56;;;;;;;27.07;18.47;;;1.80;99.90;;;;;;4955114;29;20203;-76
2023/12/15 03:47:23;;;;;;;26.30;17.77;;;1.80;99.90;;;;;;4954867;29;20594;-76
2023/12/15 03:49:51;;;;;;;27.43;17.07;;;1.80;99.90;;;;;;4954974;29;20221;-76
2023/12/15 03:52:17;;;;;;;24.77;16.27;;;1.80;99.90;;;;;;4955050;29;20594;-76
2023/12/15 03:54:44;;;;;;;24.80;15.80;;;1.80;99.90;;;;;;4954804;29;20209;-76
2023/12/15 03:57:11;;;;;;;26.20;17.40;;;1.90;99.90;;;;;;4954985;29;20205;-76
2023/12/15 03:59:39;;;;;;;25.63;15.40;;;1.80;99.90;;;;;;4955118;29;20609;-76
2023/12/15 04:02:10;;;;;;;25.23;16.13;;;1.80;99.90;;;;;;4954923;29;20205;-76
2023/12/15 04:04:37;;;;;;;24.43;16.33;;;1.80;99.90;;;;;;4955114;29;20202;-77
2023/12/15 04:07:05;;;;;;;21.27;14.50;;;1.80;99.90;;;;;;4954662;29;20665;-76
2023/12/15 04:09:32;;;;;;;23.07;14.57;;;1.90;99.90;;;;;;4948014;29;20230;-75
2023/12/15 04:11:59;;;;;;;20.17;13.80;;;1.90;99.90;;;;;;4961126;29;20201;-76
2023/12/15 04:14:25;;;;;;;23.40;14.67;;;1.90;99.90;;;;;;4955386;29;20205;-77
2023/12/15 04:16:52;;;;;;;22.63;15.00;;;1.90;99.90;;;;;;4954780;29;20653;-76
2023/12/15 04:19:19;;;;;;;21.47;14.13;;;1.90;99.90;;;;;;4954646;29;20197;-76
2023/12/15 04:21:45;;;;;;;23.10;14.73;;;1.90;99.90;;;;;;4954674;29;20271;-76
2023/12/15 04:24:13;;;;;;;23.87;15.87;;;1.90;99.90;;;;;;4954601;29;20736;-76
2023/12/15 04:26:40;;;;;;;25.67;16.17;;;1.90;99.90;;;;;;4954736;29;20209;-76
2023/12/15 04:29:06;;;;;;;27.20;16.97;;;1.80;99.90;;;;;;4954725;29;20205;-76
2023/12/15 04:31:33;;;;;;;24.03;15.73;;;1.80;99.90;;;;;;4954768;29;20627;-76
2023/12/15 04:33:59;;;;;;;24.20;16.80;;;1.90;99.90;;;;;;4954744;29;20209;-76
2023/12/15 04:36:26;;;;;;;26.27;17.07;;;1.90;99.90;;;;;;4954621;29;20213;-76
2023/12/15 04:38:53;;;;;;;21.53;14.87;;;1.90;99.90;;;;;;4954624;29;20229;-76
2023/12/15 04:41:23;;;;;;;23.63;16.00;;;1.90;99.90;;;;;;4954602;29;20323;-76
2023/12/15 04:43:50;;;;;;;23.27;14.97;;;1.80;99.90;;;;;;4954570;29;20271;-75
2023/12/15 04:46:24;;;;;;;23.93;16.30;;;1.80;99.90;;;;;;4954356;29;20252;-76
2023/12/15 04:48:52;;;;;;;25.23;16.43;;;1.80;99.90;;;;;;4954285;29;20669;-76
2023/12/15 04:51:18;;;;;;;25.20;15.63;;;1.90;99.90;;;;;;4954382;29;20238;-76
2023/12/15 04:53:46;;;;;;;26.80;16.57;;;1.90;99.90;;;;;;4954441;29;20201;-75
2023/12/15 04:56:12;;;;;;;24.77;16.23;;;2.00;99.90;;;;;;4954330;29;20201;-76
2023/12/15 04:58:41;;;;;;;22.87;16.03;;;2.00;99.90;;;;;;4954365;29;20241;-76
2023/12/15 05:01:10;;;;;;;25.63;15.63;;;2.00;99.90;;;;;;4954227;29;20542;-76
2023/12/15 05:03:37;;;;;;;24.07;15.47;;;2.00;99.90;;;;;;4954502;29;20288;-75
2023/12/15 05:06:04;;;;;;;24.60;15.77;;;2.00;99.90;;;;;;4954374;29;20271;-77
2023/12/15 05:08:31;;;;;;;24.33;15.77;;;2.00;99.90;;;;;;4954404;29;20205;-76
2023/12/15 05:10:58;;;;;;;23.30;15.53;;;2.00;99.90;;;;;;4954167;29;20226;-76
2023/12/15 05:13:24;;;;;;;24.13;16.13;;;2.00;99.90;;;;;;4954115;29;20208;-75
2023/12/15 05:15:53;;;;;;;24.03;15.33;;;1.90;99.90;;;;;;4954073;29;20206;-76
2023/12/15 05:18:19;;;;;;;22.93;15.80;;;1.90;99.90;;;;;;4954327;29;20304;-76
2023/12/15 05:20:46;;;;;;;26.27;15.87;;;2.00;99.90;;;;;;4954060;29;20205;-77
2023/12/15 05:23:14;;;;;;;25.87;16.03;;;1.90;99.90;;;;;;4954061;29;20201;-76
2023/12/15 05:25:40;;;;;;;26.13;17.07;;;1.90;99.90;;;;;;4956268;28;20215;-77
2023/12/15 05:28:07;;;;;;;25.20;15.80;;;1.90;99.90;;;;;;4957461;29;20205;-76
2023/12/15 05:30:33;;;;;;;25.70;17.00;;;2.00;99.90;;;;;;4957483;29;20292;-76
2023/12/15 05:33:01;;;;;;;25.37;17.37;;;1.90;99.90;;;;;;4957586;29;20209;-76
2023/12/15 05:35:28;;;;;;;26.63;16.33;;;2.00;99.90;;;;;;4957362;29;20197;-75
2023/12/15 05:37:55;;;;;;;24.90;16.10;;;2.00;99.90;;;;;;4957259;29;20256;-75
2023/12/15 05:40:21;;;;;;;25.30;15.70;;;2.00;99.90;;;;;;4957133;29;20236;-75
2023/12/15 05:42:48;;;;;;;26.53;16.13;;;2.10;99.90;;;;;;4957187;29;20229;-76
2023/12/15 05:45:15;;;;;;;22.90;15.13;;;2.20;99.90;;;;;;4957425;29;20202;-77
2023/12/15 05:47:42;;;;;;;27.73;17.63;;;2.10;99.90;;;;;;4957353;29;20202;-76
2023/12/15 05:50:12;;;;;;;26.07;15.80;;;2.20;99.90;;;;;;4956997;29;20221;-76
2023/12/15 05:52:39;;;;;;;29.50;16.50;;;2.20;99.90;;;;;;4957553;29;20253;-76
2023/12/15 05:55:06;;;;;;;24.63;15.80;;;2.20;99.90;;;;;;4957084;29;20232;-76
2023/12/15 05:57:33;;;;;;;24.90;15.60;;;2.20;99.90;;;;;;4956678;29;20206;-76
2023/12/15 06:00:00;;;;;;;26.43;16.20;;;2.20;99.90;;;;;;4957177;29;20264;-76
2023/12/15 06:02:26;;;;;;;26.93;16.10;;;2.20;99.90;;;;;;4957246;29;20209;-76
2023/12/15 06:04:53;;;;;;;29.20;15.80;;;2.30;99.90;;;;;;4956838;29;20203;-77
2023/12/15 06:07:21;;;;;;;25.90;15.33;;;2.30;99.90;;;;;;4956882;29;20530;-77
2023/12/15 06:09:47;;;;;;;24.40;15.83;;;2.30;99.90;;;;;;4957036;29;20197;-77
2023/12/15 06:12:16;;;;;;;24.87;15.43;;;2.30;99.90;;;;;;4956859;29;20266;-77
2023/12/15 06:14:42;;;;;;;30.70;18.20;;;2.30;99.90;;;;;;4956770;29;20259;-76
2023/12/15 06:17:10;;;;;;;32.40;18.53;;;2.30;99.90;;;;;;4956948;29;20202;-76
2023/12/15 06:19:40;;;;;;;39.17;22.10;;;2.30;99.90;;;;;;4956540;29;20206;-76
2023/12/15 06:22:06;;;;;;;29.23;17.90;;;2.30;99.90;;;;;;4956488;29;20645;-76
2023/12/15 06:24:34;;;;;;;28.93;18.17;;;2.30;99.90;;;;;;4948644;29;20244;-77
2023/12/15 06:27:03;;;;;;;33.10;21.20;;;2.30;99.90;;;;;;4956819;29;20201;-78
2023/12/15 06:29:30;;;;;;;25.23;16.80;;;2.40;99.90;;;;;;4956963;29;20205;-76
2023/12/15 06:31:56;;;;;;;26.00;17.03;;;2.40;99.90;;;;;;4956437;29;20649;-76
2023/12/15 06:34:23;;;;;;;25.33;15.57;;;2.40;99.90;;;;;;4956502;29;20256;-76
2023/12/15 06:36:49;;;;;;;23.37;15.53;;;2.40;99.90;;;;;;4955917;28;20197;-76
2023/12/15 06:39:16;;;;;;;25.70;16.60;;;2.40;99.90;;;;;;4956485;29;20274;-76
2023/12/15 06:41:44;;;;;;;21.93;14.73;;;2.40;99.90;;;;;;4956182;29;20322;-76
2023/12/15 06:44:11;;;;;;;25.60;16.53;;;2.40;99.90;;;;;;4956529;29;20205;-76
2023/12/15 06:46:39;;;;;;;26.37;16.70;;;2.40;99.90;;;;;;4956198;29;20626;-76
2023/12/15 06:49:05;;;;;;;27.03;15.63;;;2.40;99.90;;;;;;4956127;29;20221;-76
2023/12/15 06:51:32;;;;;;;26.23;16.27;;;2.40;99.90;;;;;;4955683;29;20228;-76
2023/12/15 06:53:58;;;;;;;24.03;15.33;;;2.50;99.90;;;;;;4956547;29;20208;-75
2023/12/15 06:56:25;;;;;;;24.67;16.00;;;2.40;99.90;;;;;;4956378;29;20286;-76
2023/12/15 06:58:53;;;;;;;24.50;15.07;;;2.50;99.90;;;;;;4955943;29;20202;-76
2023/12/15 07:01:21;;;;;;;22.10;14.07;;;2.50;99.90;;;;;;4955944;29;20205;-76
2023/12/15 07:03:48;;;;;;;24.50;15.93;;;2.50;99.90;;;;;;4955950;29;20226;-77
2023/12/15 07:06:17;;;;;;;27.40;14.87;;;2.50;99.90;;;;;;4955932;29;20197;-77
2023/12/15 07:08:43;;;;;;;26.57;16.60;;;2.50;99.90;;;;;;4956289;29;20237;-77
2023/12/15 07:11:10;;;;;;;22.73;15.27;;;2.60;99.90;;;;;;4955903;29;20225;-77
2023/12/15 07:13:37;;;;;;;25.80;16.50;;;2.60;99.90;;;;;;4956041;29;20199;-77
2023/12/15 07:16:06;;;;;;;27.80;18.20;;;2.50;99.90;;;;;;4955664;29;20236;-77
2023/12/15 07:18:34;;;;;;;23.77;15.73;;;2.60;99.90;;;;;;4947710;29;20198;-77
2023/12/15 07:21:00;;;;;;;25.10;16.43;;;2.50;99.90;;;;;;4956220;29;20269;-77
2023/12/15 07:23:27;;;;;;;28.03;16.97;;;2.60;99.90;;;;;;4956083;29;20231;-77
2023/12/15 07:25:54;;;;;;;23.90;15.30;;;2.60;99.90;;;;;;4955710;29;20210;-77
2023/12/15 07:28:20;;;;;;;25.07;16.00;;;2.60;99.90;;;;;;4955765;29;20546;-77
2023/12/15 07:30:47;;;;;;;25.23;15.90;;;2.60;99.90;;;;;;4955755;29;20276;-77
2023/12/15 07:33:15;;;;;;;26.83;17.07;;;2.70;99.90;;;;;;4955563;29;20203;-77
2023/12/15 07:35:42;;;;;;;28.00;16.63;;;2.70;99.90;;;;;;4955920;29;20213;-77
2023/12/15 07:38:09;;;;;;;26.07;15.87;;;2.80;99.90;;;;;;4955965;29;20206;-77
2023/12/15 07:40:36;;;;;;;28.07;16.33;;;2.80;99.90;;;;;;4955664;29;20201;-78
2023/12/15 07:43:03;;;;;;;25.80;15.63;;;2.80;99.90;;;;;;4956572;29;20259;-77
2023/12/15 07:45:29;;;;;;;28.30;16.10;;;2.80;99.90;;;;;;4965082;29;20211;-77
2023/12/15 07:47:56;;;;;;;25.77;16.50;;;2.80;99.90;;;;;;4955912;28;20205;-77
2023/12/15 07:50:24;;;;;;;27.90;16.73;;;2.90;99.90;;;;;;4956168;29;20218;-78
2023/12/15 07:52:51;;;;;;;25.83;16.63;;;2.90;99.90;;;;;;4956390;29;20911;-78
2023/12/15 07:55:19;;;;;;;26.73;16.37;;;3.00;99.90;;;;;;4957579;29;20289;-77
2023/12/15 07:57:45;;;;;;;26.30;15.90;;;2.90;99.90;;;;;;4966337;29;20209;-76
2023/12/15 08:00:14;;;;;;;27.57;16.03;;;3.00;99.90;;;;;;4961369;29;20219;-76
2023/12/15 08:02:41;;;;;;;28.23;16.40;;;3.10;99.90;;;;;;4956528;29;20666;-76
2023/12/15 08:05:09;;;;;;;25.47;15.17;;;3.10;99.90;;;;;;4956574;29;20290;-76
2023/12/15 08:07:37;;;;;;;25.40;16.17;;;3.20;99.90;;;;;;4956090;29;20549;-76
2023/12/15 08:10:04;;;;;;;23.13;14.73;;;3.20;99.90;;;;;;4955588;29;20209;-76
2023/12/15 08:12:31;;;;;;;25.23;16.20;;;3.20;99.90;;;;;;4957949;29;20287;-77
2023/12/15 08:14:57;;;;;;;23.73;14.90;;;3.30;99.90;;;;;;4957741;29;20585;-77
2023/12/15 08:17:24;;;;;;;26.23;15.03;;;3.30;99.90;;;;;;4955271;29;20280;-77
2023/12/15 08:19:51;;;;;;;23.87;15.53;;;3.30;99.90;;;;;;4955699;29;20264;-76
2023/12/15 08:22:18;;;;;;;23.20;14.43;;;3.30;99.90;;;;;;4954942;29;20208;-76
2023/12/15 08:24:46;;;;;;;26.67;15.37;;;3.30;99.90;;;;;;4956464;29;20206;-76
2023/12/15 08:27:16;;;;;;;24.10;14.90;;;3.30;99.90;;;;;;4963511;29;20208;-77
2023/12/15 08:29:43;;;;;;;27.50;16.47;;;3.40;99.90;;;;;;4955861;29;20296;-77
2023/12/15 08:32:09;;;;;;;22.10;14.57;;;3.40;99.90;;;;;;4955276;29;20296;-78
2023/12/15 08:34:36;;;;;;;33.77;21.07;;;3.50;99.90;;;;;;4955283;29;20253;-78
2023/12/15 08:37:03;;;;;;;23.33;14.37;;;3.40;99.90;;;;;;4955315;29;20204;-78
2023/12/15 08:39:30;;;;;;;22.83;14.47;;;3.50;99.90;;;;;;4955649;29;20212;-78
2023/12/15 08:41:57;;;;;;;22.10;14.37;;;3.50;99.90;;;;;;4954716;29;20241;-78
2023/12/15 08:44:24;;;;;;;22.40;14.00;;;3.60;99.90;;;;;;4955210;29;20204;-78
2023/12/15 08:46:51;;;;;;;21.13;14.07;;;3.60;99.90;;;;;;4955288;29;20203;-77
2023/12/15 08:49:17;;;;;;;23.53;15.00;;;3.70;99.90;;;;;;4954608;29;20656;-78
2023/12/15 08:51:44;;;;;;;21.30;14.73;;;3.70;99.90;;;;;;4954843;29;20696;-76
2023/12/15 08:54:11;;;;;;;24.63;14.77;;;3.80;99.90;;;;;;4954564;29;20205;-78
2023/12/15 08:56:37;;;;;;;26.60;15.27;;;3.90;99.90;;;;;;4954955;29;20232;-77
2023/12/15 08:59:05;;;;;;;22.67;13.87;;;4.00;99.90;;;;;;4956457;28;20257;-77
2023/12/15 09:01:33;;;;;;;20.87;13.77;;;3.90;99.90;;;;;;4960207;29;20290;-76
2023/12/15 09:04:00;;;;;;;21.23;13.57;;;3.90;99.90;;;;;;4958582;29;20212;-77
2023/12/15 09:06:26;;;;;;;23.50;14.00;;;3.90;99.90;;;;;;4959005;29;20208;-77
2023/12/15 09:08:53;;;;;;;23.43;14.27;;;3.90;99.90;;;;;;4965365;29;20208;-77
2023/12/15 09:11:20;;;;;;;23.37;14.70;;;4.00;99.90;;;;;;4961750;29;20225;-77
2023/12/15 09:13:47;;;;;;;24.70;14.73;;;4.10;99.90;;;;;;4957567;29;20606;-77
2023/12/15 09:16:15;;;;;;;20.13;12.87;;;4.00;99.90;;;;;;4957843;29;20205;-78
2023/12/15 09:18:41;;;;;;;23.90;13.57;;;4.00;99.90;;;;;;4957817;29;20235;-77
2023/12/15 09:21:08;;;;;;;26.77;15.00;;;4.00;99.90;;;;;;4957445;29;20602;-77
2023/12/15 09:23:35;;;;;;;24.07;15.53;;;4.10;99.90;;;;;;4957392;29;20255;-77
2023/12/15 09:26:01;;;;;;;25.57;15.97;;;4.00;99.90;;;;;;4957765;29;20207;-77
2023/12/15 09:28:28;;;;;;;27.57;16.93;;;4.10;99.90;;;;;;4957564;29;20203;-77
2023/12/15 09:30:54;;;;;;;25.90;16.63;;;4.20;99.90;;;;;;4957458;29;20204;-77
2023/12/15 09:33:22;;;;;;;28.90;17.57;;;4.30;99.90;;;;;;4957455;29;20207;-77
2023/12/15 09:35:53;;;;;;;30.00;19.20;;;4.30;99.90;;;;;;4957362;29;20233;-77
2023/12/15 09:38:19;;;;;;;25.03;16.20;;;4.30;99.90;;;;;;4957281;29;20204;-77
2023/12/15 09:40:46;;;;;;;31.03;17.23;;;4.40;99.90;;;;;;4957322;29;20215;-77
2023/12/15 09:43:13;;;;;;;25.67;15.67;;;4.40;99.90;;;;;;4957421;29;20260;-77
2023/12/15 09:45:39;;;;;;;24.03;14.80;;;4.50;99.90;;;;;;4957269;29;20201;-77
2023/12/15 09:48:08;;;;;;;27.90;17.00;;;4.50;99.90;;;;;;4957146;29;20256;-76
2023/12/15 09:50:38;;;;;;;26.03;16.40;;;4.40;99.90;;;;;;4957350;29;20207;-77
2023/12/15 09:53:05;;;;;;;24.33;15.53;;;4.50;99.90;;;;;;4957379;29;20286;-77
2023/12/15 09:55:34;;;;;;;27.10;15.63;;;4.60;99.90;;;;;;4957290;29;20214;-77
2023/12/15 09:58:01;;;;;;;25.67;16.43;;;4.50;99.90;;;;;;4957365;29;20200;-77
2023/12/15 10:00:29;;;;;;;25.23;16.40;;;4.70;99.90;;;;;;4957134;29;20208;-77
2023/12/15 10:02:59;;;;;;;50.43;34.00;;;4.80;99.90;;;;;;4956938;29;20200;-77
2023/12/15 10:05:27;;;;;;;23.90;15.63;;;5.00;99.90;;;;;;4956855;29;20295;-76
2023/12/15 10:07:55;;;;;;;23.73;15.77;;;4.60;99.90;;;;;;4957065;29;20299;-77
2023/12/15 10:10:23;;;;;;;24.03;15.63;;;4.60;99.90;;;;;;4956448;28;20230;-77
2023/12/15 10:12:50;;;;;;;24.93;17.13;;;4.70;99.90;;;;;;4956667;29;20324;-77
2023/12/15 10:15:17;;;;;;;25.57;15.83;;;4.70;99.90;;;;;;4956489;29;20729;-77
2023/12/15 10:17:43;;;;;;;26.40;16.30;;;4.70;99.90;;;;;;4956464;29;20268;-77
2023/12/15 10:20:12;;;;;;;22.57;15.03;;;4.60;99.90;;;;;;4956624;29;20200;-77
2023/12/15 10:22:39;;;;;;;26.67;15.90;;;4.70;99.90;;;;;;4956701;29;20230;-78
2023/12/15 10:25:17;;;;;;;24.03;14.80;;;4.70;99.90;;;;;;4956561;29;20201;-77
2023/12/15 10:27:44;;;;;;;24.33;15.73;;;4.70;99.90;;;;;;4956355;29;20288;-77
2023/12/15 10:30:12;;;;;;;23.80;14.67;;;4.90;99.90;;;;;;4956340;29;20209;-77
2023/12/15 10:32:38;;;;;;;20.60;14.07;;;4.80;99.90;;;;;;4956091;29;20263;-78
2023/12/15 10:35:06;;;;;;;23.07;14.67;;;5.00;99.90;;;;;;4956046;29;20226;-77
2023/12/15 10:37:33;;;;;;;23.90;14.80;;;4.90;99.90;;;;;;4956236;29;20207;-78
2023/12/15 10:40:02;;;;;;;23.83;14.70;;;5.00;99.90;;;;;;4956260;29;20239;-76
2023/12/15 10:42:30;;;;;;;22.40;14.87;;;5.10;99.90;;;;;;4955958;29;20264;-77
2023/12/15 10:44:58;;;;;;;21.90;13.77;;;5.10;99.90;;;;;;4955928;29;20555;-77
2023/12/15 10:47:26;;;;;;;20.00;13.57;;;5.10;99.90;;;;;;4956030;29;20234;-77
2023/12/15 10:49:53;;;;;;;19.93;13.97;;;5.30;99.90;;;;;;4939201;29;20621;-77
2023/12/15 10:52:21;;;;;;;19.63;13.50;;;5.30;99.90;;;;;;4955746;29;20221;-77
2023/12/15 10:54:49;;;;;;;19.23;13.43;;;5.10;99.90;;;;;;4955772;29;20204;-77
2023/12/15 10:57:15;;;;;;;21.00;14.53;;;5.10;99.90;;;;;;4955628;29;20237;-77
2023/12/15 10:59:43;;;;;;;20.77;14.47;;;5.20;99.90;;;;;;4955653;29;20201;-77
2023/12/15 11:02:13;;;;;;;23.70;14.43;;;5.10;99.90;;;;;;4955756;29;20201;-77
2023/12/15 11:04:40;;;;;;;19.03;13.87;;;5.20;99.90;;;;;;4955628;29;20256;-77
2023/12/15 11:07:08;;;;;;;17.83;13.23;;;5.10;99.90;;;;;;4955612;29;20229;-77
2023/12/15 11:09:37;;;;;;;20.37;15.10;;;5.10;99.90;;;;;;4955612;29;20208;-78
2023/12/15 11:12:37;;;;;;;19.70;14.87;;;5.10;99.90;;;;;;4955351;29;20273;-78
2023/12/15 11:15:08;;;;;;;17.97;14.07;;;5.10;99.90;;;;;;4877837;29;20204;-77
2023/12/15 11:17:39;;;;;;;20.20;14.47;;;5.20;99.90;;;;;;4877839;29;20203;-77
2023/12/15 11:20:10;;;;;;;24.53;14.97;;;5.20;99.90;;;;;;4924000;29;20205;-78
2023/12/15 11:22:49;;;;;;;20.57;14.10;;;5.20;99.90;;;;;;4956041;28;20246;-78
2023/12/15 11:25:19;;;;;;;22.00;15.00;;;5.00;99.90;;;;;;4955518;29;20747;-78
2023/12/15 11:28:02;;;;;;;20.47;14.73;;;5.00;99.90;;;;;;4955384;29;20256;-79
2023/12/15 11:30:34;;;;;;;33.47;23.37;;;5.00;99.90;;;;;;4955320;29;20717;-78
2023/12/15 11:33:01;;;;;;;24.67;17.17;;;5.20;99.90;;;;;;4955187;29;20224;-78
2023/12/15 11:35:29;;;;;;;22.23;15.00;;;5.20;99.90;;;;;;4954877;29;20733;-78
2023/12/15 11:37:58;;;;;;;21.93;14.00;;;5.10;99.90;;;;;;4955060;29;20669;-78
2023/12/15 11:40:24;;;;;;;21.73;15.93;;;5.00;99.90;;;;;;4954975;29;20771;-79
2023/12/15 11:42:54;;;;;;;19.87;14.83;;;5.00;99.90;;;;;;4954772;29;20244;-79
2023/12/15 11:45:20;;;;;;;25.43;18.70;;;5.10;99.90;;;;;;4954915;29;20197;-79
2023/12/15 11:47:48;;;;;;;21.23;14.93;;;5.20;99.90;;;;;;4954917;29;20201;-79
2023/12/15 11:50:15;;;;;;;23.80;16.50;;;5.20;99.90;;;;;;4954955;29;20209;-78
2023/12/15 11:52:42;;;;;;;21.33;15.97;;;5.10;99.90;;;;;;4954666;29;20692;-79
2023/12/15 11:55:09;;;;;;;23.20;14.70;;;5.20;99.90;;;;;;4954747;29;20208;-78
2023/12/15 11:57:37;;;;;;;20.00;14.23;;;5.20;99.90;;;;;;4954588;29;20268;-79
2023/12/15 12:00:05;;;;;;;125.43;84.77;;;5.20;99.90;;;;;;4954559;29;20212;-79
2023/12/15 12:02:31;;;;;;;22.67;15.20;;;5.30;99.90;;;;;;4946841;29;20204;-78
2023/12/15 12:05:00;;;;;;;41.40;30.97;;;5.20;99.90;;;;;;4954894;29;20200;-79
2023/12/15 12:07:27;;;;;;;37.27;30.30;;;5.30;99.90;;;;;;4954685;29;20255;-78
2023/12/15 12:09:54;;;;;;;19.53;14.77;;;5.40;99.90;;;;;;4954784;29;20219;-79
2023/12/15 12:12:21;;;;;;;21.07;15.63;;;5.50;99.90;;;;;;4954862;29;20253;-79
2023/12/15 12:14:48;;;;;;;19.10;14.87;;;5.50;99.90;;;;;;4954608;29;20256;-79
2023/12/15 12:17:16;;;;;;;20.77;16.57;;;5.50;99.90;;;;;;4954777;29;20234;-78
2023/12/15 12:19:43;;;;;;;21.57;14.70;;;5.40;99.90;;;;;;4954618;29;20205;-79
2023/12/15 12:22:13;;;;;;;20.47;15.17;;;5.30;99.90;;;;;;4954705;29;20268;-78
2023/12/15 12:24:40;;;;;;;21.43;14.83;;;5.20;99.90;;;;;;4954480;29;20621;-78
2023/12/15 12:27:07;;;;;;;20.80;15.60;;;5.30;99.90;;;;;;4954300;29;20660;-78
2023/12/15 12:29:35;;;;;;;19.30;14.87;;;5.40;99.90;;;;;;4954923;29;20303;-78
2023/12/15 12:32:02;;;;;;;20.53;14.77;;;5.50;99.90;;;;;;4954579;29;20201;-78
2023/12/15 12:34:28;;;;;;;20.63;15.10;;;5.50;99.90;;;;;;4956684;28;20249;-78
2023/12/15 12:36:55;;;;;;;19.83;14.87;;;5.50;99.90;;;;;;4958383;29;20197;-78